sensor_id;sensor_type;location;lat;lon;timestamp;temperature;humidity
6752;DHT22;3413;47.680;9.166;2023-04-04T00:00:10;5.80;74.00
6752;DHT22;3413;47.680;9.166;2023-04-04T00:05:13;5.70;74.00
6752;DHT22;3413;47.680;9.166;2023-04-04T00:10:15;5.70;73.90
6752;DHT22;3413;47.680;9.166;2023-04-04T00:15:17;5.60;73.70
6752;DHT22;3413;47.680;9.166;2023-04-04T00:20:20;5.60;73.90
6752;DHT22;3413;47.680;9.166;2023-04-04T00:25:22;5.50;73.80
6752;DHT22;3413;47.680;9.166;2023-04-04T00:30:24;5.40;73.80
6752;DHT22;3413;47.680;9.166;2023-04-04T00:35:26;5.30;73.70
6752;DHT22;3413;47.680;9.166;2023-04-04T00:40:28;5.30;73.60
6752;DHT22;3413;47.680;9.166;2023-04-04T00:45:30;5.20;73.60
6752;DHT22;3413;47.680;9.166;2023-04-04T00:50:33;5.10;73.60
6752;DHT22;3413;47.680;9.166;2023-04-04T00:55:37;5.10;73.60
6752;DHT22;3413;47.680;9.166;2023-04-04T01:00:39;5.00;73.40
6752;DHT22;3413;47.680;9.166;2023-04-04T01:05:41;5.00;73.40
6752;DHT22;3413;47.680;9.166;2023-04-04T01:10:43;4.90;73.50
6752;DHT22;3413;47.680;9.166;2023-04-04T01:15:45;4.90;73.40
6752;DHT22;3413;47.680;9.166;2023-04-04T01:21:20;4.80;73.30
6752;DHT22;3413;47.680;9.166;2023-04-04T01:26:23;4.80;73.30
6752;DHT22;3413;47.680;9.166;2023-04-04T01:31:41;4.70;73.30
6752;DHT22;3413;47.680;9.166;2023-04-04T01:37:00;4.70;73.30
6752;DHT22;3413;47.680;9.166;2023-04-04T01:42:08;4.60;73.20
6752;DHT22;3413;47.680;9.166;2023-04-04T01:47:14;4.50;73.10
6752;DHT22;3413;47.680;9.166;2023-04-04T01:52:16;4.50;73.10
6752;DHT22;3413;47.680;9.166;2023-04-04T01:57:19;4.50;73.10
6752;DHT22;3413;47.680;9.166;2023-04-04T02:02:21;4.40;73.00
6752;DHT22;3413;47.680;9.166;2023-04-04T02:07:23;4.40;73.00
6752;DHT22;3413;47.680;9.166;2023-04-04T02:12:25;4.40;73.00
6752;DHT22;3413;47.680;9.166;2023-04-04T02:17:27;4.40;73.10
6752;DHT22;3413;47.680;9.166;2023-04-04T02:22:30;4.40;73.80
6752;DHT22;3413;47.680;9.166;2023-04-04T02:27:32;4.50;73.20
6752;DHT22;3413;47.680;9.166;2023-04-04T02:32:35;4.50;73.20
6752;DHT22;3413;47.680;9.166;2023-04-04T02:37:39;4.50;73.10
6752;DHT22;3413;47.680;9.166;2023-04-04T02:42:44;4.50;73.20
6752;DHT22;3413;47.680;9.166;2023-04-04T02:47:50;4.50;73.20
6752;DHT22;3413;47.680;9.166;2023-04-04T02:53:01;4.40;73.10
6752;DHT22;3413;47.680;9.166;2023-04-04T02:58:07;4.30;73.10
6752;DHT22;3413;47.680;9.166;2023-04-04T03:03:09;4.30;73.10
6752;DHT22;3413;47.680;9.166;2023-04-04T03:08:16;4.30;73.10
6752;DHT22;3413;47.680;9.166;2023-04-04T03:13:17;4.30;73.10
6752;DHT22;3413;47.680;9.166;2023-04-04T03:18:19;4.30;73.10
6752;DHT22;3413;47.680;9.166;2023-04-04T03:23:22;4.20;73.00
6752;DHT22;3413;47.680;9.166;2023-04-04T03:28:24;4.20;73.00
6752;DHT22;3413;47.680;9.166;2023-04-04T03:33:26;4.20;73.00
6752;DHT22;3413;47.680;9.166;2023-04-04T03:38:28;4.20;73.00
6752;DHT22;3413;47.680;9.166;2023-04-04T03:43:31;4.00;72.80
6752;DHT22;3413;47.680;9.166;2023-04-04T03:48:33;4.10;73.00
6752;DHT22;3413;47.680;9.166;2023-04-04T03:53:38;4.10;72.90
6752;DHT22;3413;47.680;9.166;2023-04-04T03:58:40;4.00;72.80
6752;DHT22;3413;47.680;9.166;2023-04-04T04:03:45;3.90;72.80
6752;DHT22;3413;47.680;9.166;2023-04-04T04:08:48;3.80;72.70
6752;DHT22;3413;47.680;9.166;2023-04-04T04:13:49;3.80;72.70
6752;DHT22;3413;47.680;9.166;2023-04-04T04:18:51;3.80;72.70
6752;DHT22;3413;47.680;9.166;2023-04-04T04:24:05;3.80;72.70
6752;DHT22;3413;47.680;9.166;2023-04-04T04:29:07;3.80;72.70
6752;DHT22;3413;47.680;9.166;2023-04-04T04:34:10;3.80;72.70
6752;DHT22;3413;47.680;9.166;2023-04-04T04:39:14;3.90;72.80
6752;DHT22;3413;47.680;9.166;2023-04-04T04:44:30;3.90;72.90
6752;DHT22;3413;47.680;9.166;2023-04-04T04:49:33;4.00;72.90
6752;DHT22;3413;47.680;9.166;2023-04-04T04:54:39;3.90;72.90
6752;DHT22;3413;47.680;9.166;2023-04-04T04:59:41;3.90;72.90
6752;DHT22;3413;47.680;9.166;2023-04-04T05:04:45;3.90;73.00
6752;DHT22;3413;47.680;9.166;2023-04-04T05:09:50;3.90;73.10
6752;DHT22;3413;47.680;9.166;2023-04-04T05:14:55;3.90;72.90
6752;DHT22;3413;47.680;9.166;2023-04-04T05:19:58;3.80;72.90
6752;DHT22;3413;47.680;9.166;2023-04-04T05:25:00;3.70;72.80
6752;DHT22;3413;47.680;9.166;2023-04-04T05:30:03;3.70;72.90
6752;DHT22;3413;47.680;9.166;2023-04-04T05:35:16;3.60;72.80
6752;DHT22;3413;47.680;9.166;2023-04-04T05:40:18;3.70;73.00
6752;DHT22;3413;47.680;9.166;2023-04-04T05:45:26;3.70;73.00
6752;DHT22;3413;47.680;9.166;2023-04-04T05:50:29;3.80;73.10
6752;DHT22;3413;47.680;9.166;2023-04-04T05:55:35;3.80;73.00
6752;DHT22;3413;47.680;9.166;2023-04-04T06:00:38;3.90;73.10
6752;DHT22;3413;47.680;9.166;2023-04-04T06:05:42;3.90;73.20
6752;DHT22;3413;47.680;9.166;2023-04-04T06:10:46;3.90;73.30
6752;DHT22;3413;47.680;9.166;2023-04-04T06:15:48;4.00;73.30
6752;DHT22;3413;47.680;9.166;2023-04-04T06:20:53;4.00;73.40
6752;DHT22;3413;47.680;9.166;2023-04-04T06:25:55;4.00;73.30
6752;DHT22;3413;47.680;9.166;2023-04-04T06:30:58;4.00;73.40
6752;DHT22;3413;47.680;9.166;2023-04-04T06:36:04;4.10;73.50
6752;DHT22;3413;47.680;9.166;2023-04-04T06:41:07;4.20;73.60
6752;DHT22;3413;47.680;9.166;2023-04-04T06:46:09;4.30;73.80
6752;DHT22;3413;47.680;9.166;2023-04-04T06:51:11;4.30;73.70
6752;DHT22;3413;47.680;9.166;2023-04-04T06:56:18;4.40;73.80
6752;DHT22;3413;47.680;9.166;2023-04-04T07:01:20;4.50;73.80
6752;DHT22;3413;47.680;9.166;2023-04-04T07:06:22;4.50;73.70
6752;DHT22;3413;47.680;9.166;2023-04-04T07:11:26;4.60;73.90
6752;DHT22;3413;47.680;9.166;2023-04-04T07:16:29;4.60;73.90
6752;DHT22;3413;47.680;9.166;2023-04-04T07:21:32;4.80;74.10
6752;DHT22;3413;47.680;9.166;2023-04-04T07:26:34;4.90;74.30
6752;DHT22;3413;47.680;9.166;2023-04-04T07:31:36;5.00;74.30
6752;DHT22;3413;47.680;9.166;2023-04-04T07:36:38;5.10;74.30
6752;DHT22;3413;47.680;9.166;2023-04-04T07:41:40;5.20;74.40
6752;DHT22;3413;47.680;9.166;2023-04-04T07:46:42;5.30;74.50
6752;DHT22;3413;47.680;9.166;2023-04-04T07:51:46;5.40;74.50
6752;DHT22;3413;47.680;9.166;2023-04-04T07:56:52;5.50;74.60
6752;DHT22;3413;47.680;9.166;2023-04-04T08:01:54;5.60;74.60
6752;DHT22;3413;47.680;9.166;2023-04-04T08:06:56;5.70;74.60
6752;DHT22;3413;47.680;9.166;2023-04-04T08:11:58;5.80;74.80
6752;DHT22;3413;47.680;9.166;2023-04-04T08:17:00;6.00;74.90
6752;DHT22;3413;47.680;9.166;2023-04-04T08:22:02;6.10;74.90
6752;DHT22;3413;47.680;9.166;2023-04-04T08:27:04;6.20;75.00
6752;DHT22;3413;47.680;9.166;2023-04-04T08:32:07;6.40;75.30
6752;DHT22;3413;47.680;9.166;2023-04-04T08:37:10;6.80;76.90
6752;DHT22;3413;47.680;9.166;2023-04-04T08:42:12;7.40;78.40
6752;DHT22;3413;47.680;9.166;2023-04-04T08:47:19;8.00;79.10
6752;DHT22;3413;47.680;9.166;2023-04-04T08:52:22;8.50;79.20
6752;DHT22;3413;47.680;9.166;2023-04-04T08:57:26;8.80;78.90
6752;DHT22;3413;47.680;9.166;2023-04-04T09:02:55;9.00;78.90
6752;DHT22;3413;47.680;9.166;2023-04-04T09:08:02;9.10;78.50
6752;DHT22;3413;47.680;9.166;2023-04-04T09:13:05;9.20;78.40
6752;DHT22;3413;47.680;9.166;2023-04-04T09:18:17;9.20;78.30
6752;DHT22;3413;47.680;9.166;2023-04-04T09:23:20;9.40;78.40
6752;DHT22;3413;47.680;9.166;2023-04-04T09:28:24;9.50;78.10
6752;DHT22;3413;47.680;9.166;2023-04-04T09:33:26;9.50;78.00
6752;DHT22;3413;47.680;9.166;2023-04-04T09:38:29;9.70;78.20
6752;DHT22;3413;47.680;9.166;2023-04-04T09:43:32;9.70;78.00
6752;DHT22;3413;47.680;9.166;2023-04-04T09:48:36;9.80;78.00
6752;DHT22;3413;47.680;9.166;2023-04-04T09:53:38;9.90;77.90
6752;DHT22;3413;47.680;9.166;2023-04-04T09:58:46;9.80;77.80
6752;DHT22;3413;47.680;9.166;2023-04-04T10:04:04;9.90;77.70
6752;DHT22;3413;47.680;9.166;2023-04-04T10:09:07;10.10;76.60
6752;DHT22;3413;47.680;9.166;2023-04-04T10:14:09;10.20;76.70
6752;DHT22;3413;47.680;9.166;2023-04-04T10:19:13;10.30;76.60
6752;DHT22;3413;47.680;9.166;2023-04-04T10:24:18;10.50;76.80
6752;DHT22;3413;47.680;9.166;2023-04-04T10:29:20;10.60;76.80
6752;DHT22;3413;47.680;9.166;2023-04-04T10:34:42;10.90;77.00
6752;DHT22;3413;47.680;9.166;2023-04-04T10:39:52;11.00;76.90
6752;DHT22;3413;47.680;9.166;2023-04-04T10:44:56;11.00;76.70
6752;DHT22;3413;47.680;9.166;2023-04-04T10:50:10;11.00;76.60
6752;DHT22;3413;47.680;9.166;2023-04-04T10:55:13;11.10;76.70
6752;DHT22;3413;47.680;9.166;2023-04-04T11:00:17;11.20;76.60
6752;DHT22;3413;47.680;9.166;2023-04-04T11:05:39;11.30;76.80
6752;DHT22;3413;47.680;9.166;2023-04-04T11:10:52;11.50;76.70
6752;DHT22;3413;47.680;9.166;2023-04-04T11:21:02;11.70;76.80
6752;DHT22;3413;47.680;9.166;2023-04-04T11:26:06;11.80;76.80
6752;DHT22;3413;47.680;9.166;2023-04-04T11:36:48;12.20;76.90
6752;DHT22;3413;47.680;9.166;2023-04-04T11:52:11;12.30;76.60
6752;DHT22;3413;47.680;9.166;2023-04-04T11:57:15;12.30;76.80
6752;DHT22;3413;47.680;9.166;2023-04-04T12:02:25;12.60;76.80
6752;DHT22;3413;47.680;9.166;2023-04-04T12:07:30;12.70;76.60
6752;DHT22;3413;47.680;9.166;2023-04-04T12:12:36;12.70;76.50
6752;DHT22;3413;47.680;9.166;2023-04-04T12:17:42;12.80;76.30
6752;DHT22;3413;47.680;9.166;2023-04-04T12:22:48;12.80;76.30
6752;DHT22;3413;47.680;9.166;2023-04-04T12:27:51;12.80;76.40
6752;DHT22;3413;47.680;9.166;2023-04-04T12:32:53;13.00;76.40
6752;DHT22;3413;47.680;9.166;2023-04-04T12:38:05;12.90;76.20
6752;DHT22;3413;47.680;9.166;2023-04-04T12:43:17;13.00;76.20
6752;DHT22;3413;47.680;9.166;2023-04-04T12:48:26;13.00;76.20
6752;DHT22;3413;47.680;9.166;2023-04-04T12:53:49;13.10;76.20
6752;DHT22;3413;47.680;9.166;2023-04-04T12:58:51;13.00;75.90
6752;DHT22;3413;47.680;9.166;2023-04-04T13:03:53;13.10;76.10
6752;DHT22;3413;47.680;9.166;2023-04-04T13:08:55;13.20;76.00
6752;DHT22;3413;47.680;9.166;2023-04-04T13:14:02;13.20;76.00
6752;DHT22;3413;47.680;9.166;2023-04-04T13:19:05;13.40;76.00
6752;DHT22;3413;47.680;9.166;2023-04-04T13:24:07;13.50;76.00
6752;DHT22;3413;47.680;9.166;2023-04-04T13:29:09;13.50;75.90
6752;DHT22;3413;47.680;9.166;2023-04-04T13:34:10;13.60;76.10
6752;DHT22;3413;47.680;9.166;2023-04-04T13:39:12;13.80;75.90
6752;DHT22;3413;47.680;9.166;2023-04-04T13:44:14;13.50;75.20
6752;DHT22;3413;47.680;9.166;2023-04-04T13:49:17;13.40;75.20
6752;DHT22;3413;47.680;9.166;2023-04-04T13:54:19;13.50;75.20
6752;DHT22;3413;47.680;9.166;2023-04-04T13:59:21;13.70;75.20
6752;DHT22;3413;47.680;9.166;2023-04-04T14:04:23;13.70;75.10
6752;DHT22;3413;47.680;9.166;2023-04-04T14:09:25;13.70;75.00
6752;DHT22;3413;47.680;9.166;2023-04-04T14:14:27;13.70;75.10
6752;DHT22;3413;47.680;9.166;2023-04-04T14:19:29;13.90;75.00
6752;DHT22;3413;47.680;9.166;2023-04-04T14:24:31;13.80;74.80
6752;DHT22;3413;47.680;9.166;2023-04-04T14:29:32;13.80;74.60
6752;DHT22;3413;47.680;9.166;2023-04-04T14:34:34;13.70;74.50
6752;DHT22;3413;47.680;9.166;2023-04-04T14:39:36;13.80;74.50
6752;DHT22;3413;47.680;9.166;2023-04-04T14:44:38;13.80;74.30
6752;DHT22;3413;47.680;9.166;2023-04-04T14:49:42;13.70;74.30
6752;DHT22;3413;47.680;9.166;2023-04-04T14:54:44;13.70;74.20
6752;DHT22;3413;47.680;9.166;2023-04-04T14:59:46;13.80;74.20
6752;DHT22;3413;47.680;9.166;2023-04-04T15:04:48;13.80;74.00
6752;DHT22;3413;47.680;9.166;2023-04-04T15:09:50;13.70;73.90
6752;DHT22;3413;47.680;9.166;2023-04-04T15:14:52;13.70;73.70
6752;DHT22;3413;47.680;9.166;2023-04-04T15:19:54;13.60;73.40
6752;DHT22;3413;47.680;9.166;2023-04-04T15:24:56;13.60;73.30
6752;DHT22;3413;47.680;9.166;2023-04-04T15:29:58;13.60;73.30
6752;DHT22;3413;47.680;9.166;2023-04-04T15:35:00;13.70;73.20
6752;DHT22;3413;47.680;9.166;2023-04-04T15:40:05;13.80;73.10
6752;DHT22;3413;47.680;9.166;2023-04-04T15:45:07;13.70;72.80
6752;DHT22;3413;47.680;9.166;2023-04-04T15:50:10;13.70;72.70
6752;DHT22;3413;47.680;9.166;2023-04-04T15:55:13;13.70;72.70
6752;DHT22;3413;47.680;9.166;2023-04-04T16:00:17;13.70;72.60
6752;DHT22;3413;47.680;9.166;2023-04-04T16:05:19;13.60;72.40
6752;DHT22;3413;47.680;9.166;2023-04-04T16:10:21;13.50;72.30
6752;DHT22;3413;47.680;9.166;2023-04-04T16:15:23;13.50;72.20
6752;DHT22;3413;47.680;9.166;2023-04-04T16:20:26;13.30;72.00
6752;DHT22;3413;47.680;9.166;2023-04-04T16:25:27;13.30;71.80
6752;DHT22;3413;47.680;9.166;2023-04-04T16:30:29;13.30;71.80
6752;DHT22;3413;47.680;9.166;2023-04-04T16:35:32;13.20;71.50
6752;DHT22;3413;47.680;9.166;2023-04-04T16:40:35;13.10;71.40
6752;DHT22;3413;47.680;9.166;2023-04-04T16:45:37;13.10;71.40
6752;DHT22;3413;47.680;9.166;2023-04-04T16:50:39;12.80;71.10
6752;DHT22;3413;47.680;9.166;2023-04-04T16:55:41;12.80;71.20
6752;DHT22;3413;47.680;9.166;2023-04-04T17:00:43;12.80;71.00
6752;DHT22;3413;47.680;9.166;2023-04-04T17:05:46;12.80;70.90
6752;DHT22;3413;47.680;9.166;2023-04-04T17:10:48;12.70;70.70
6752;DHT22;3413;47.680;9.166;2023-04-04T17:15:49;12.70;70.70
6752;DHT22;3413;47.680;9.166;2023-04-04T17:20:52;12.50;70.40
6752;DHT22;3413;47.680;9.166;2023-04-04T17:25:54;12.30;70.20
6752;DHT22;3413;47.680;9.166;2023-04-04T17:30:58;12.20;70.00
6752;DHT22;3413;47.680;9.166;2023-04-04T17:36:01;12.10;69.90
6752;DHT22;3413;47.680;9.166;2023-04-04T17:41:05;11.90;69.60
6752;DHT22;3413;47.680;9.166;2023-04-04T17:46:08;11.70;69.30
6752;DHT22;3413;47.680;9.166;2023-04-04T17:51:10;11.50;69.10
6752;DHT22;3413;47.680;9.166;2023-04-04T17:56:12;11.30;68.80
6752;DHT22;3413;47.680;9.166;2023-04-04T18:01:14;11.30;68.70
6752;DHT22;3413;47.680;9.166;2023-04-04T18:06:16;11.10;68.50
6752;DHT22;3413;47.680;9.166;2023-04-04T18:11:18;10.90;68.30
6752;DHT22;3413;47.680;9.166;2023-04-04T18:16:20;10.70;68.10
6752;DHT22;3413;47.680;9.166;2023-04-04T18:21:26;10.60;67.90
6752;DHT22;3413;47.680;9.166;2023-04-04T18:26:28;10.50;67.80
6752;DHT22;3413;47.680;9.166;2023-04-04T18:31:31;10.50;67.80
6752;DHT22;3413;47.680;9.166;2023-04-04T18:36:33;10.50;67.70
6752;DHT22;3413;47.680;9.166;2023-04-04T18:41:36;10.40;67.50
6752;DHT22;3413;47.680;9.166;2023-04-04T18:46:40;10.30;67.50
6752;DHT22;3413;47.680;9.166;2023-04-04T18:51:43;10.30;67.40
6752;DHT22;3413;47.680;9.166;2023-04-04T18:56:52;10.20;67.30
6752;DHT22;3413;47.680;9.166;2023-04-04T19:01:55;10.20;67.30
6752;DHT22;3413;47.680;9.166;2023-04-04T19:07:03;10.10;67.20
6752;DHT22;3413;47.680;9.166;2023-04-04T19:12:06;9.90;68.30
6752;DHT22;3413;47.680;9.166;2023-04-04T19:17:08;9.80;68.10
6752;DHT22;3413;47.680;9.166;2023-04-04T19:22:11;9.70;68.10
6752;DHT22;3413;47.680;9.166;2023-04-04T19:27:14;9.50;68.00
6752;DHT22;3413;47.680;9.166;2023-04-04T19:32:16;9.40;67.90
6752;DHT22;3413;47.680;9.166;2023-04-04T19:37:20;9.30;67.80
6752;DHT22;3413;47.680;9.166;2023-04-04T19:42:25;9.30;67.80
6752;DHT22;3413;47.680;9.166;2023-04-04T19:47:28;9.30;67.70
6752;DHT22;3413;47.680;9.166;2023-04-04T19:52:30;9.10;67.60
6752;DHT22;3413;47.680;9.166;2023-04-04T19:57:32;9.00;67.60
6752;DHT22;3413;47.680;9.166;2023-04-04T20:02:46;9.00;67.60
6752;DHT22;3413;47.680;9.166;2023-04-04T20:07:48;8.90;67.40
6752;DHT22;3413;47.680;9.166;2023-04-04T20:12:52;8.80;67.30
6752;DHT22;3413;47.680;9.166;2023-04-04T20:17:54;8.70;67.20
6752;DHT22;3413;47.680;9.166;2023-04-04T20:22:56;8.60;67.10
6752;DHT22;3413;47.680;9.166;2023-04-04T20:28:01;8.60;67.20
6752;DHT22;3413;47.680;9.166;2023-04-04T20:38:29;8.30;66.90
6752;DHT22;3413;47.680;9.166;2023-04-04T20:43:31;8.30;67.00
6752;DHT22;3413;47.680;9.166;2023-04-04T20:48:37;8.30;66.80
6752;DHT22;3413;47.680;9.166;2023-04-04T20:53:40;8.10;66.70
6752;DHT22;3413;47.680;9.166;2023-04-04T20:58:42;8.00;66.70
6752;DHT22;3413;47.680;9.166;2023-04-04T21:03:44;8.00;66.60
6752;DHT22;3413;47.680;9.166;2023-04-04T21:08:49;7.90;66.50
6752;DHT22;3413;47.680;9.166;2023-04-04T21:13:51;8.00;66.60
6752;DHT22;3413;47.680;9.166;2023-04-04T21:18:59;7.90;66.50
6752;DHT22;3413;47.680;9.166;2023-04-04T21:24:01;7.90;66.50
6752;DHT22;3413;47.680;9.166;2023-04-04T21:34:20;7.80;66.50
6752;DHT22;3413;47.680;9.166;2023-04-04T21:39:27;7.70;66.40
6752;DHT22;3413;47.680;9.166;2023-04-04T21:44:31;7.60;66.30
6752;DHT22;3413;47.680;9.166;2023-04-04T21:49:33;7.50;66.30
6752;DHT22;3413;47.680;9.166;2023-04-04T21:54:35;7.50;66.40
6752;DHT22;3413;47.680;9.166;2023-04-04T21:59:37;7.40;66.30
6752;DHT22;3413;47.680;9.166;2023-04-04T22:04:39;7.40;66.20
6752;DHT22;3413;47.680;9.166;2023-04-04T22:09:41;7.30;66.20
6752;DHT22;3413;47.680;9.166;2023-04-04T22:14:43;7.20;66.30
6752;DHT22;3413;47.680;9.166;2023-04-04T22:19:46;7.20;66.20
6752;DHT22;3413;47.680;9.166;2023-04-04T22:24:59;7.10;66.20
6752;DHT22;3413;47.680;9.166;2023-04-04T22:30:05;7.20;66.20
6752;DHT22;3413;47.680;9.166;2023-04-04T22:35:10;7.10;66.10
6752;DHT22;3413;47.680;9.166;2023-04-04T22:40:15;7.10;66.20
6752;DHT22;3413;47.680;9.166;2023-04-04T22:45:18;7.00;66.10
6752;DHT22;3413;47.680;9.166;2023-04-04T22:50:21;7.10;66.20
6752;DHT22;3413;47.680;9.166;2023-04-04T22:55:24;7.10;66.20
6752;DHT22;3413;47.680;9.166;2023-04-04T23:00:27;7.10;66.20
6752;DHT22;3413;47.680;9.166;2023-04-04T23:05:29;7.10;66.20
6752;DHT22;3413;47.680;9.166;2023-04-04T23:10:31;7.10;66.20
6752;DHT22;3413;47.680;9.166;2023-04-04T23:15:33;7.00;66.20
6752;DHT22;3413;47.680;9.166;2023-04-04T23:20:38;7.00;66.30
6752;DHT22;3413;47.680;9.166;2023-04-04T23:25:40;7.00;66.20
6752;DHT22;3413;47.680;9.166;2023-04-04T23:30:42;7.00;66.20
6752;DHT22;3413;47.680;9.166;2023-04-04T23:35:44;7.00;66.20
6752;DHT22;3413;47.680;9.166;2023-04-04T23:40:46;7.00;66.10
6752;DHT22;3413;47.680;9.166;2023-04-04T23:45:48;7.00;66.10
6752;DHT22;3413;47.680;9.166;2023-04-04T23:50:51;7.10;66.20
6752;DHT22;3413;47.680;9.166;2023-04-04T23:55:55;7.00;66.30
